Time;durP1;ratioP1;P1;durP2;ratioP2;P2;SDS_P1;SDS_P2;PMS_P1;PMS_P2;Temp;Humidity;BMP_temperature;BMP_pressure;BME280_temperature;BME280_humidity;BME280_pressure;Samples;Min_cycle;Max_cycle;Signal;HPM_P1;HPM_P2
2022/08/20 00:00:35;;;;;;;4.18;2.70;;;;;;;26.52;45.92;99779.88;4857159;29;20034;-87
2022/08/20 00:03:30;;;;;;;3.85;2.70;;;;;;;26.52;46.07;99781.69;4856594;29;20048;-88
2022/08/20 00:05:59;;;;;;;3.60;2.80;;;;;;;26.52;46.11;99777.22;4870653;29;20041;-87
2022/08/20 00:08:26;;;;;;;3.67;2.72;;;;;;;26.50;46.06;99781.84;4872988;29;20085;-87
2022/08/20 00:10:53;;;;;;;3.70;2.65;;;;;;;26.50;46.20;99778.31;4855955;29;20536;-88
2022/08/20 00:13:24;;;;;;;3.53;2.63;;;;;;;26.50;46.07;99771.13;4871948;29;20057;-87
2022/08/20 00:15:50;;;;;;;3.72;2.80;;;;;;;26.50;45.84;99771.13;4857289;29;20033;-86
2022/08/20 00:18:16;;;;;;;3.28;2.42;;;;;;;26.50;45.88;99763.13;4855108;29;20053;-88
2022/08/20 00:20:47;;;;;;;3.75;2.70;;;;;;;26.47;46.02;99760.66;4854007;29;20033;-87
2022/08/20 00:23:13;;;;;;;3.55;2.55;;;;;;;26.47;46.13;99763.34;4854275;29;20480;-86
2022/08/20 00:25:40;;;;;;;4.30;2.85;;;;;;;26.47;45.77;99766.03;4853637;29;20045;-89
2022/08/20 00:28:06;;;;;;;3.95;3.00;;;;;;;26.46;45.65;99767.00;4854689;29;20598;-86
2022/08/20 00:30:34;;;;;;;4.05;3.05;;;;;;;26.46;45.75;99761.66;4869968;29;20036;-88
2022/08/20 00:33:05;;;;;;;3.80;2.70;;;;;;;26.44;45.78;99763.56;4854552;29;20040;-87
2022/08/20 00:35:34;;;;;;;3.90;3.03;;;;;;;26.45;45.66;99764.44;4853957;29;20025;-87
2022/08/20 00:37:59;;;;;;;3.45;2.58;;;;;;;26.44;46.03;99760.91;4854586;29;20044;-87
2022/08/20 00:40:31;;;;;;;4.05;2.85;;;;;;;26.44;45.85;99766.25;4871250;29;20037;-87
2022/08/20 00:42:59;;;;;;;4.28;2.92;;;;;;;26.43;46.00;99764.56;4855832;29;20041;-87
2022/08/20 00:45:28;;;;;;;3.53;2.63;;;;;;;26.42;45.83;99762.03;4871028;29;20037;-87
2022/08/20 00:47:54;;;;;;;3.92;2.80;;;;;;;26.41;45.86;99755.81;4853936;29;20036;-87
2022/08/20 00:50:25;;;;;;;4.32;2.80;;;;;;;26.41;45.95;99753.13;4852715;29;20029;-87
2022/08/20 00:52:52;;;;;;;3.10;2.38;;;;;;;26.40;46.09;99754.09;4856373;29;20044;-89
2022/08/20 00:55:21;;;;;;;3.75;2.80;;;;;;;26.40;46.02;99757.63;4857049;29;20025;-89
2022/08/20 00:57:53;;;;;;;3.72;2.67;;;;;;;26.40;46.20;99746.09;4858063;29;20033;-87
2022/08/20 01:00:41;;;;;;;4.28;2.88;;;;;;;26.39;46.12;99755.09;4855880;29;20468;-88
2022/08/20 01:03:11;;;;;;;3.80;2.88;;;;;;;26.38;46.15;99756.03;4885990;29;20029;-87
2022/08/20 01:05:39;;;;;;;4.63;2.80;;;;;;;26.36;45.84;99755.31;4854827;29;20376;-87
2022/08/20 01:08:05;;;;;;;3.63;2.65;;;;;;;26.38;45.95;99753.34;4856093;29;20026;-88
2022/08/20 01:10:35;;;;;;;3.90;3.00;;;;;;;26.35;46.09;99754.44;4855631;29;20045;-88
2022/08/20 01:13:09;;;;;;;3.92;3.00;;;;;;;26.36;45.82;99760.66;4856011;29;20040;-88
2022/08/20 01:15:41;;;;;;;4.20;2.92;;;;;;;26.34;45.90;99757.28;4855851;29;20029;-88
2022/08/20 01:18:12;;;;;;;4.20;3.00;;;;;;;26.34;45.84;99757.28;4855689;29;20069;-89
2022/08/20 01:21:08;;;;;;;4.70;3.20;;;;;;;26.34;45.97;99749.25;4856160;29;20037;-90
2022/08/20 01:23:38;;;;;;;4.68;2.92;;;;;;;26.33;45.90;99755.56;4849259;29;20049;-87
2022/08/20 01:26:13;;;;;;;3.50;2.70;;;;;;;26.32;45.87;99759.19;4882780;29;20030;-88
2022/08/20 01:28:52;;;;;;;4.25;3.33;;;;;;;26.31;46.18;99754.81;4884469;29;20038;-87
2022/08/20 01:31:21;;;;;;;3.95;2.63;;;;;;;26.31;45.89;99754.81;4852929;29;20033;-89
2022/08/20 01:33:48;;;;;;;4.03;2.70;;;;;;;26.31;46.17;99757.50;4853019;29;20037;-87
2022/08/20 01:36:17;;;;;;;3.60;2.53;;;;;;;26.29;46.01;99751.44;4852961;29;20097;-88
2022/08/20 01:38:44;;;;;;;4.68;3.13;;;;;;;26.30;46.20;99755.81;4854981;29;20021;-88
2022/08/20 01:41:35;;;;;;;3.97;2.88;;;;;;;26.28;46.12;99747.91;4855004;29;20040;-90
2022/08/20 01:44:01;;;;;;;4.35;3.33;;;;;;;26.28;46.38;99758.59;4886370;29;20026;-88
2022/08/20 01:46:31;;;;;;;4.07;2.90;;;;;;;26.28;46.07;99755.91;4855044;29;20129;-88
2022/08/20 01:49:29;;;;;;;3.90;2.95;;;;;;;26.26;46.09;99742.66;4856882;29;20036;-89
2022/08/20 01:52:07;;;;;;;4.28;2.72;;;;;;;26.25;46.12;99749.00;4859724;29;20037;-88
2022/08/20 01:54:34;;;;;;;4.78;3.10;;;;;;;26.24;46.05;99747.28;4860291;29;20062;-90
2022/08/20 01:57:04;;;;;;;4.18;2.88;;;;;;;26.25;46.06;99749.00;4859357;29;20144;-88
2022/08/20 01:59:39;;;;;;;4.30;3.28;;;;;;;26.24;46.22;99741.94;4857521;29;20033;-89
2022/08/20 02:02:05;;;;;;;4.60;3.03;;;;;;;26.23;45.93;99740.25;4884427;29;20026;-88
2022/08/20 02:04:32;;;;;;;4.30;2.83;;;;;;;26.23;46.43;99740.25;4853211;29;20280;-86
2022/08/20 02:07:00;;;;;;;4.95;3.40;;;;;;;26.25;46.06;99738.28;4856619;29;20482;-89
2022/08/20 02:09:33;;;;;;;3.95;2.75;;;;;;;26.22;45.91;99734.97;4856822;29;20029;-88
2022/08/20 02:12:01;;;;;;;4.47;3.22;;;;;;;26.21;46.05;99725.25;4856607;29;20029;-87
2022/08/20 02:14:28;;;;;;;3.78;2.92;;;;;;;26.21;46.21;99731.47;4856022;29;20029;-89
2022/08/20 02:16:57;;;;;;;4.10;3.10;;;;;;;26.20;46.11;99729.75;4872063;29;20352;-89
2022/08/20 02:19:38;;;;;;;4.53;3.10;;;;;;;26.20;46.13;99729.75;4858252;29;20053;-89
2022/08/20 02:22:15;;;;;;;4.70;3.40;;;;;;;26.19;45.94;99722.69;4859720;29;20026;-88
2022/08/20 02:24:40;;;;;;;4.50;3.00;;;;;;;26.19;46.11;99721.88;4856715;29;20029;-88
2022/08/20 02:27:06;;;;;;;4.78;3.10;;;;;;;26.17;46.19;99719.31;4856334;29;20047;-89
2022/08/20 02:29:32;;;;;;;4.72;3.15;;;;;;;26.17;46.24;99713.97;4855962;29;20536;-87
2022/08/20 02:31:57;;;;;;;3.53;2.50;;;;;;;26.19;46.17;99720.03;4856589;29;20034;-88
2022/08/20 02:34:23;;;;;;;4.72;3.10;;;;;;;26.17;46.06;99719.31;4855729;29;20531;-87
2022/08/20 02:36:49;;;;;;;4.38;3.08;;;;;;;26.16;45.99;99717.59;4855940;29;20455;-87
2022/08/20 02:39:15;;;;;;;4.45;2.95;;;;;;;26.15;45.96;99715.91;4856404;29;20025;-87
2022/08/20 02:41:40;;;;;;;4.45;3.15;;;;;;;26.16;46.01;99712.25;4856280;29;20036;-89
2022/08/20 02:44:07;;;;;;;4.40;3.17;;;;;;;26.17;46.26;99719.31;4855502;29;20033;-87
2022/08/20 02:46:34;;;;;;;4.22;2.78;;;;;;;26.16;46.18;99706.03;4855166;29;20034;-88
2022/08/20 02:49:03;;;;;;;3.67;2.70;;;;;;;26.15;46.14;99705.22;4854801;29;20033;-89
2022/08/20 02:51:29;;;;;;;4.60;2.95;;;;;;;26.14;45.97;99708.84;4856584;29;20050;-88
2022/08/20 02:53:54;;;;;;;4.28;3.05;;;;;;;26.12;46.17;99705.44;4855705;29;20037;-89
2022/08/20 02:56:20;;;;;;;3.92;2.92;;;;;;;26.13;46.22;99707.13;4856519;29;20069;-88
2022/08/20 02:58:46;;;;;;;4.45;3.22;;;;;;;26.13;46.02;99707.13;4856025;29;20041;-87
2022/08/20 03:01:15;;;;;;;4.30;3.10;;;;;;;26.12;46.27;99706.31;4871471;29;20341;-88
2022/08/20 03:03:42;;;;;;;3.78;2.95;;;;;;;26.11;46.08;99701.91;4855865;29;20036;-90
2022/08/20 03:06:09;;;;;;;4.40;3.10;;;;;;;26.11;46.02;99703.75;4855726;29;20097;-88
2022/08/20 03:08:36;;;;;;;4.13;3.03;;;;;;;26.10;46.08;99708.22;4855194;29;20040;-89
2022/08/20 03:11:04;;;;;;;4.20;3.08;;;;;;;26.11;46.09;99698.41;4856406;29;20025;-88
2022/08/20 03:13:30;;;;;;;4.25;2.90;;;;;;;26.11;46.04;99709.09;4854928;29;20128;-87
2022/08/20 03:15:58;;;;;;;3.67;2.90;;;;;;;26.11;46.22;99711.78;4855698;29;20053;-88
2022/08/20 03:18:28;;;;;;;4.18;3.20;;;;;;;26.10;46.30;99712.75;4855909;29;20064;-88
2022/08/20 03:20:54;;;;;;;4.60;3.38;;;;;;;26.08;46.26;99704.84;4858292;29;20025;-87
2022/08/20 03:23:21;;;;;;;4.53;3.28;;;;;;;26.08;46.04;99709.31;4858039;29;20089;-88
2022/08/20 03:25:46;;;;;;;4.55;3.25;;;;;;;26.08;46.11;99709.31;4858756;29;20033;-87
2022/08/20 03:28:13;;;;;;;3.75;2.58;;;;;;;26.08;45.87;99709.31;4857190;29;20036;-88
2022/08/20 03:30:39;;;;;;;4.20;3.28;;;;;;;26.07;46.17;99702.28;4874085;29;20035;-88
2022/08/20 03:33:05;;;;;;;4.50;3.25;;;;;;;26.06;45.89;99705.94;4857185;29;20097;-89
2022/08/20 03:35:32;;;;;;;4.10;3.28;;;;;;;26.06;46.21;99705.94;4855988;29;20033;-88
2022/08/20 03:37:58;;;;;;;4.70;3.25;;;;;;;26.04;46.18;99699.88;4855087;29;20412;-89
2022/08/20 03:40:28;;;;;;;3.75;2.95;;;;;;;26.04;46.26;99703.38;4872079;29;20037;-89
2022/08/20 03:42:54;;;;;;;4.82;3.38;;;;;;;26.04;46.03;99697.19;4855696;29;20093;-88
2022/08/20 03:45:22;;;;;;;4.80;3.22;;;;;;;26.04;45.87;99702.53;4855715;29;20461;-86
2022/08/20 03:47:49;;;;;;;4.05;2.97;;;;;;;26.01;46.26;99704.47;4854713;29;20046;-90
2022/08/20 03:50:16;;;;;;;4.53;3.35;;;;;;;26.03;46.25;99706.16;4854590;29;20033;-89
2022/08/20 03:52:42;;;;;;;3.83;2.85;;;;;;;26.01;46.26;99708.97;4853949;29;20452;-88
2022/08/20 03:55:09;;;;;;;4.70;3.63;;;;;;;26.00;45.96;99701.91;4873303;29;20058;-89
2022/08/20 03:57:35;;;;;;;4.20;3.17;;;;;;;25.98;46.03;99715.41;4855852;29;20029;-87
2022/08/20 04:00:04;;;;;;;4.53;3.33;;;;;;;25.98;46.07;99706.53;4856427;29;20044;-88
2022/08/20 04:02:30;;;;;;;5.10;3.70;;;;;;;25.97;46.23;99697.69;4856542;29;20062;-88
2022/08/20 04:04:55;;;;;;;4.50;3.38;;;;;;;25.96;46.01;99697.78;4856972;29;20417;-90
2022/08/20 04:07:26;;;;;;;4.22;3.10;;;;;;;25.96;46.42;99701.28;4859022;29;20037;-88
2022/08/20 04:09:54;;;;;;;4.45;3.38;;;;;;;25.96;46.01;99706.66;4861102;29;20034;-89
2022/08/20 04:12:21;;;;;;;3.72;2.80;;;;;;;25.96;46.28;99705.81;4861295;29;20029;-89
2022/08/20 04:14:47;;;;;;;4.47;3.05;;;;;;;25.95;46.27;99710.28;4876580;29;20040;-90
2022/08/20 04:17:15;;;;;;;5.60;3.70;;;;;;;25.93;46.07;99712.25;4862764;29;20026;-89
2022/08/20 04:19:42;;;;;;;5.03;3.20;;;;;;;25.92;46.14;99709.69;4893988;29;20058;-89
2022/08/20 04:22:07;;;;;;;4.05;3.05;;;;;;;25.93;46.12;99712.25;4890367;29;20022;-88
2022/08/20 04:24:34;;;;;;;5.10;3.65;;;;;;;25.92;46.46;99713.22;4856527;29;20032;-87
2022/08/20 04:27:04;;;;;;;4.72;3.13;;;;;;;25.91;46.37;99714.16;4854650;29;20053;-88
2022/08/20 04:29:31;;;;;;;4.22;3.03;;;;;;;25.91;46.13;99724.88;4854989;29;20033;-89
2022/08/20 04:31:57;;;;;;;4.40;3.30;;;;;;;25.90;46.42;99720.50;4858379;29;20068;-88
2022/08/20 04:34:22;;;;;;;4.28;3.15;;;;;;;25.90;46.00;99723.16;4871389;29;20026;-89
2022/08/20 04:36:48;;;;;;;3.85;2.83;;;;;;;25.89;46.15;99721.47;4886265;29;20029;-87
2022/08/20 04:39:14;;;;;;;4.20;3.03;;;;;;;25.90;46.21;99728.50;4856873;29;20034;-88
2022/08/20 04:41:41;;;;;;;4.15;3.08;;;;;;;25.88;46.29;99730.47;4857005;29;20030;-88
2022/08/20 04:44:07;;;;;;;4.20;3.20;;;;;;;25.88;46.29;99730.47;4856111;29;20037;-88
2022/08/20 04:46:37;;;;;;;3.88;2.95;;;;;;;25.86;46.04;99727.91;4887530;29;20029;-88
2022/08/20 04:49:04;;;;;;;4.28;3.22;;;;;;;25.87;46.31;99723.41;4855857;29;20044;-88
2022/08/20 04:51:30;;;;;;;3.97;3.03;;;;;;;25.87;46.37;99728.78;4854705;29;20041;-88
2022/08/20 04:53:56;;;;;;;4.93;3.38;;;;;;;25.86;46.19;99724.41;4854627;29;20061;-89
2022/08/20 04:56:26;;;;;;;4.13;3.08;;;;;;;25.84;46.29;99724.50;4854076;29;20037;-90
2022/08/20 04:58:54;;;;;;;4.63;3.25;;;;;;;25.86;46.31;99732.41;4853791;29;20041;-87
2022/08/20 05:01:22;;;;;;;4.53;3.42;;;;;;;25.86;46.13;99727.06;4854182;29;20026;-87
2022/08/20 05:03:48;;;;;;;4.55;3.25;;;;;;;25.85;46.36;99728.00;4853373;29;20073;-90
2022/08/20 05:06:16;;;;;;;4.07;3.22;;;;;;;25.83;46.19;99733.50;4854170;29;20029;-88
2022/08/20 05:08:42;;;;;;;3.97;3.20;;;;;;;25.83;46.00;99737.97;4870987;29;20105;-88
2022/08/20 05:11:09;;;;;;;4.22;3.13;;;;;;;25.83;46.08;99743.34;4855403;29;20057;-87
2022/08/20 05:13:35;;;;;;;5.20;3.33;;;;;;;25.83;46.21;99743.34;4854940;29;20467;-88
2022/08/20 05:16:03;;;;;;;4.57;3.30;;;;;;;25.81;46.15;99743.44;4853155;29;20093;-89
2022/08/20 05:18:34;;;;;;;4.60;3.40;;;;;;;25.81;46.19;99747.94;4853220;29;20053;-88
2022/08/20 05:21:06;;;;;;;4.57;3.38;;;;;;;25.80;46.02;99755.09;4883738;29;20033;-88
2022/08/20 05:23:41;;;;;;;4.43;2.85;;;;;;;25.79;46.16;99749.88;4853262;29;20061;-87
2022/08/20 05:26:08;;;;;;;4.22;3.08;;;;;;;25.78;46.23;99748.19;4854079;29;20040;-87
2022/08/20 05:28:37;;;;;;;5.18;3.67;;;;;;;25.79;46.09;99753.41;4852491;29;20026;-88
2022/08/20 05:31:08;;;;;;;4.13;3.33;;;;;;;25.79;46.11;99755.22;4852404;29;20094;-89
2022/08/20 05:33:35;;;;;;;4.20;3.00;;;;;;;25.78;46.29;99750.84;4852414;29;20025;-87
2022/08/20 05:36:03;;;;;;;4.68;3.28;;;;;;;25.78;46.18;99750.84;4852173;29;20120;-88
2022/08/20 05:38:29;;;;;;;4.70;3.58;;;;;;;25.79;45.96;99755.22;4853128;29;20053;-88
2022/08/20 05:40:55;;;;;;;4.47;3.42;;;;;;;25.78;46.19;99751.72;4852752;29;20029;-89
2022/08/20 05:43:21;;;;;;;4.05;3.08;;;;;;;25.77;45.95;99750.03;4854253;29;20037;-87
2022/08/20 05:45:51;;;;;;;4.18;3.10;;;;;;;25.78;45.98;99748.19;4851797;29;20046;-87
2022/08/20 05:48:21;;;;;;;4.20;3.08;;;;;;;25.77;46.18;99751.81;4851836;29;20124;-87
2022/08/20 05:50:48;;;;;;;4.85;2.92;;;;;;;25.77;46.16;99760.72;4852602;29;20034;-87
2022/08/20 05:53:15;;;;;;;5.03;3.40;;;;;;;25.78;46.15;99764.22;4852472;29;20178;-87
2022/08/20 05:55:42;;;;;;;4.50;3.10;;;;;;;25.77;46.15;99765.19;4854189;29;20029;-88
2022/08/20 05:58:14;;;;;;;5.07;3.40;;;;;;;25.76;46.44;99771.50;4855733;29;20421;-88
2022/08/20 06:00:40;;;;;;;4.70;3.38;;;;;;;25.78;46.05;99772.22;4853829;29;20049;-89
2022/08/20 06:05:50;;;;;;;5.20;3.15;;;;;;;25.78;46.18;99766.88;4871011;29;20102;-90
2022/08/20 06:08:16;;;;;;;4.88;3.15;;;;;;;25.76;46.10;99763.50;4853578;29;20053;-89
2022/08/20 06:10:44;;;;;;;5.13;3.67;;;;;;;25.77;46.20;99770.53;4852486;29;20100;-88
2022/08/20 06:13:10;;;;;;;4.43;3.10;;;;;;;25.78;46.04;99769.56;4869881;29;20045;-87
2022/08/20 06:15:36;;;;;;;4.70;3.63;;;;;;;25.78;46.02;99775.78;4853985;29;20104;-89
2022/08/20 06:18:07;;;;;;;4.75;3.42;;;;;;;25.76;46.11;99771.50;4869560;29;20026;-89
2022/08/20 06:20:35;;;;;;;4.40;3.45;;;;;;;25.78;46.14;99772.22;4853863;29;20089;-88
2022/08/20 06:23:01;;;;;;;4.72;3.50;;;;;;;25.78;46.18;99774.91;4854104;29;20589;-88
2022/08/20 06:25:28;;;;;;;4.15;3.20;;;;;;;25.77;46.10;99770.53;4854416;29;20025;-89
2022/08/20 06:27:53;;;;;;;3.83;2.53;;;;;;;25.77;45.87;99765.19;4855198;29;20037;-89
2022/08/20 06:30:19;;;;;;;4.05;3.03;;;;;;;25.79;46.21;99760.56;4886083;29;20375;-89
2022/08/20 06:32:45;;;;;;;4.97;3.78;;;;;;;25.78;46.15;99766.88;4857922;29;20025;-89
2022/08/20 06:35:11;;;;;;;4.70;3.45;;;;;;;25.78;46.15;99762.41;4860001;29;20049;-89
2022/08/20 06:37:38;;;;;;;4.20;3.20;;;;;;;25.81;46.21;99766.66;4875180;29;20098;-89
2022/08/20 06:40:23;;;;;;;4.88;3.67;;;;;;;25.83;46.05;99764.72;4858303;29;20033;-90
2022/08/20 06:42:50;;;;;;;4.60;3.30;;;;;;;25.84;46.05;99769.09;4858644;29;20100;-89
2022/08/20 06:45:22;;;;;;;4.60;3.50;;;;;;;25.84;46.13;99767.28;4855239;29;20136;-89
2022/08/20 06:47:47;;;;;;;4.47;3.33;;;;;;;25.85;45.97;99768.09;4868459;29;20029;-87
2022/08/20 06:50:19;;;;;;;5.10;3.60;;;;;;;25.87;45.94;99766.19;4868016;29;20060;-88
2022/08/20 06:52:46;;;;;;;5.03;3.40;;;;;;;25.87;45.86;99763.50;4851868;29;20512;-87
2022/08/20 06:55:13;;;;;;;4.25;3.13;;;;;;;25.86;46.28;99759.16;4850336;29;20059;-87
2022/08/20 06:57:40;;;;;;;4.45;3.20;;;;;;;25.89;46.11;99758.06;4850524;29;20030;-88
2022/08/20 07:00:10;;;;;;;4.88;3.53;;;;;;;25.88;45.89;99767.88;4850229;29;20029;-87
2022/08/20 07:02:36;;;;;;;4.63;3.47;;;;;;;25.90;45.95;99770.44;4881768;29;20018;-88
2022/08/20 07:05:04;;;;;;;5.00;3.85;;;;;;;25.90;45.94;99771.28;4853908;29;20049;-88
2022/08/20 07:07:29;;;;;;;4.75;3.30;;;;;;;25.90;45.97;99765.94;4854673;29;20037;-88
2022/08/20 07:10:06;;;;;;;4.45;3.33;;;;;;;25.91;46.07;99774.81;4856331;29;20026;-88
2022/08/20 07:12:34;;;;;;;4.30;3.35;;;;;;;25.92;46.00;99766.69;4859567;29;20022;-89
2022/08/20 07:15:01;;;;;;;4.78;3.55;;;;;;;25.93;45.96;99771.06;4857385;29;20041;-89
2022/08/20 07:17:26;;;;;;;4.40;3.20;;;;;;;25.94;45.95;99772.75;4857453;29;20133;-88
2022/08/20 07:19:52;;;;;;;5.25;3.58;;;;;;;25.94;45.75;99772.75;4856974;29;20053;-89
2022/08/20 07:22:17;;;;;;;4.10;3.42;;;;;;;25.95;45.75;99769.09;4857945;29;20132;-88
2022/08/20 07:24:43;;;;;;;4.63;3.65;;;;;;;25.95;45.87;99765.59;4860410;29;20433;-88
2022/08/20 07:27:09;;;;;;;4.35;3.28;;;;;;;25.95;46.01;99763.75;4858128;29;20064;-88
2022/08/20 07:32:38;;;;;;;5.10;3.65;;;;;;;25.97;45.84;99761.84;4874591;29;20563;-87
2022/08/20 07:35:07;;;;;;;4.55;3.50;;;;;;;25.99;45.85;99759.88;4862357;29;20014;-89
2022/08/20 07:37:38;;;;;;;4.93;3.05;;;;;;;25.99;45.61;99754.53;4861442;29;20400;-89
2022/08/20 07:40:06;;;;;;;4.15;3.17;;;;;;;26.01;45.49;99759.78;4856545;29;20057;-88
2022/08/20 07:42:31;;;;;;;4.55;3.28;;;;;;;26.04;45.79;99766.72;4856159;29;20022;-90
2022/08/20 07:44:57;;;;;;;5.07;3.55;;;;;;;26.03;45.60;99765.84;4854053;29;20131;-88
2022/08/20 07:47:22;;;;;;;4.70;3.33;;;;;;;26.04;45.77;99761.38;4856488;29;20036;-86
2022/08/20 07:49:48;;;;;;;5.30;3.67;;;;;;;26.03;45.64;99770.31;4854889;29;20025;-86
2022/08/20 07:52:14;;;;;;;4.72;3.28;;;;;;;26.06;45.78;99764.75;4883885;29;20041;-87
2022/08/20 07:54:41;;;;;;;5.10;3.33;;;;;;;26.07;45.70;99769.13;4869916;29;20081;-87
2022/08/20 07:57:10;;;;;;;4.60;3.70;;;;;;;26.10;45.66;99763.56;4853842;29;20144;-88
2022/08/20 07:59:37;;;;;;;4.50;3.05;;;;;;;26.11;45.50;99762.56;4853808;29;20471;-88
2022/08/20 08:02:03;;;;;;;4.88;3.38;;;;;;;26.12;45.60;99758.94;4853811;29;20124;-87
2022/08/20 08:04:35;;;;;;;4.93;3.28;;;;;;;26.13;45.73;99763.28;4884856;29;20060;-87
2022/08/20 08:07:04;;;;;;;3.80;2.78;;;;;;;26.16;45.48;99756.84;4870250;29;20112;-86
2022/08/20 08:09:33;;;;;;;4.32;3.33;;;;;;;26.17;45.62;99758.56;4871522;29;20029;-89
2022/08/20 08:12:01;;;;;;;3.78;2.70;;;;;;;26.19;45.46;99752.13;4856059;29;20025;-88
2022/08/20 08:14:30;;;;;;;4.60;3.45;;;;;;;26.19;45.51;99756.63;4884672;29;20093;-87
2022/08/20 08:16:58;;;;;;;4.28;3.30;;;;;;;26.20;45.38;99755.66;4870170;29;20137;-87
2022/08/20 08:19:25;;;;;;;3.88;2.83;;;;;;;26.22;45.42;99759.91;4854355;29;20484;-87
2022/08/20 08:21:51;;;;;;;4.05;3.03;;;;;;;26.24;45.57;99763.34;4855166;29;20025;-86
2022/08/20 08:24:17;;;;;;;4.57;3.35;;;;;;;26.25;45.71;99758.84;4858029;29;20341;-87
2022/08/20 08:26:43;;;;;;;4.47;3.33;;;;;;;26.27;45.40;99754.22;4857020;29;20036;-89
2022/08/20 08:29:10;;;;;;;3.97;2.88;;;;;;;26.27;45.41;99752.41;4857595;29;20040;-87
2022/08/20 08:31:37;;;;;;;4.38;3.25;;;;;;;26.29;45.51;99764.81;4872003;29;20464;-88
2022/08/20 08:34:03;;;;;;;3.50;2.40;;;;;;;26.30;45.65;99763.84;4887814;29;20069;-88
2022/08/20 08:36:28;;;;;;;4.60;3.00;;;;;;;26.32;45.20;99769.91;4856792;29;20029;-89
2022/08/20 08:38:55;;;;;;;3.72;2.60;;;;;;;26.33;45.57;99760.94;4886840;29;20452;-87
2022/08/20 08:41:32;;;;;;;4.22;2.95;;;;;;;26.36;45.29;99766.03;4857474;29;20025;-89
2022/08/20 08:44:11;;;;;;;3.80;2.60;;;;;;;26.38;45.33;99764.06;4885683;29;20026;-89
2022/08/20 08:46:43;;;;;;;4.82;3.00;;;;;;;26.39;45.14;99763.13;4856241;29;20061;-89
2022/08/20 08:49:13;;;;;;;4.63;3.40;;;;;;;26.42;45.63;99762.03;4856662;29;20053;-88
2022/08/20 08:51:46;;;;;;;4.82;3.10;;;;;;;26.44;45.25;99757.38;4856993;29;20029;-90
2022/08/20 08:54:18;;;;;;;4.38;3.17;;;;;;;26.44;45.16;99752.88;4858624;29;20022;-91
2022/08/20 08:56:45;;;;;;;4.63;3.40;;;;;;;26.47;45.23;99757.13;4859977;29;20037;-91
2022/08/20 08:59:13;;;;;;;3.85;2.80;;;;;;;26.49;45.09;99755.19;4864746;29;20029;-89
2022/08/20 09:01:46;;;;;;;5.50;3.47;;;;;;;26.50;45.36;99756.91;4879210;29;20106;-90
2022/08/20 09:04:17;;;;;;;4.15;3.10;;;;;;;26.52;45.18;99755.81;4888019;29;20036;-88
2022/08/20 09:06:43;;;;;;;4.00;2.90;;;;;;;26.54;45.37;99748.50;4869086;29;20041;-88
2022/08/20 09:09:23;;;;;;;4.82;3.42;;;;;;;26.56;45.35;99740.34;4870838;29;20032;-89
2022/08/20 09:11:53;;;;;;;4.68;3.20;;;;;;;26.59;45.17;99744.59;4859439;29;20037;-88
2022/08/20 09:14:20;;;;;;;4.22;2.80;;;;;;;26.61;44.99;99742.63;4854617;29;20041;-89
2022/08/20 09:16:46;;;;;;;4.75;3.05;;;;;;;26.62;45.15;99744.34;4857950;29;20040;-87
2022/08/20 09:19:11;;;;;;;3.63;2.72;;;;;;;26.66;45.36;99740.44;4885840;29;20057;-88
2022/08/20 09:21:37;;;;;;;4.38;3.10;;;;;;;26.68;45.01;99742.03;4856330;29;20033;-86
2022/08/20 09:24:03;;;;;;;4.22;3.10;;;;;;;26.71;44.92;99740.94;4872256;29;20066;-87
2022/08/20 09:26:29;;;;;;;4.18;2.97;;;;;;;26.73;44.96;99746.16;4885968;29;20472;-86
2022/08/20 09:28:55;;;;;;;4.32;3.13;;;;;;;26.74;44.79;99743.38;4858091;29;20034;-88
2022/08/20 09:31:23;;;;;;;4.80;3.45;;;;;;;26.76;44.97;99745.91;4872486;29;20029;-88
2022/08/20 09:33:49;;;;;;;4.93;3.28;;;;;;;26.78;45.02;99744.81;4869151;29;20132;-86
2022/08/20 09:36:15;;;;;;;4.65;3.25;;;;;;;26.80;44.92;99745.53;4858739;29;20036;-87
2022/08/20 09:38:41;;;;;;;4.43;3.10;;;;;;;26.83;44.81;99735.56;4875655;29;20029;-89
2022/08/20 09:41:07;;;;;;;4.07;3.05;;;;;;;26.84;44.66;99743.47;4858399;29;20065;-86
2022/08/20 09:43:33;;;;;;;4.45;3.13;;;;;;;26.86;45.02;99737.97;4857061;29;20424;-87
2022/08/20 09:45:59;;;;;;;4.40;3.10;;;;;;;26.87;44.97;99742.38;4857180;29;20043;-87
2022/08/20 09:48:33;;;;;;;4.00;2.60;;;;;;;26.89;44.78;99743.09;4856840;29;20033;-87
2022/08/20 09:51:00;;;;;;;4.00;2.65;;;;;;;26.91;44.81;99735.75;4856137;29;20037;-88
2022/08/20 09:53:25;;;;;;;3.83;2.83;;;;;;;26.92;45.02;99732.16;4856740;29;20029;-87
2022/08/20 09:55:54;;;;;;;4.18;3.08;;;;;;;26.94;44.58;99728.34;4887259;29;20059;-87
2022/08/20 09:58:29;;;;;;;4.32;2.78;;;;;;;26.95;44.86;99731.91;4856245;29;20124;-86
2022/08/20 10:00:55;;;;;;;4.28;2.58;;;;;;;26.97;44.83;99732.59;4855848;29;20041;-88
2022/08/20 10:03:21;;;;;;;3.60;2.47;;;;;;;26.98;44.76;99728.97;4870794;29;20054;-86
2022/08/20 10:05:47;;;;;;;4.35;2.85;;;;;;;27.02;44.94;99729.56;4855020;29;20441;-88
2022/08/20 10:08:13;;;;;;;3.00;2.13;;;;;;;27.03;44.74;99726.75;4886459;29;20037;-88
2022/08/20 10:10:39;;;;;;;4.72;3.22;;;;;;;27.05;44.93;99730.16;4854406;29;20455;-87
2022/08/20 10:13:04;;;;;;;3.92;2.70;;;;;;;27.07;44.68;99722.84;4853635;29;20448;-87
2022/08/20 10:15:31;;;;;;;3.47;2.50;;;;;;;27.09;44.73;99725.41;4853407;29;20101;-87
2022/08/20 10:17:56;;;;;;;3.80;2.58;;;;;;;27.14;44.75;99725.00;4853971;29;20037;-87
2022/08/20 10:20:23;;;;;;;4.25;2.75;;;;;;;27.12;44.67;99719.78;4850011;29;20044;-87
2022/08/20 10:22:50;;;;;;;3.63;2.67;;;;;;;27.14;44.82;99716.97;4852767;29;20037;-86
2022/08/20 10:25:16;;;;;;;3.83;2.78;;;;;;;27.14;44.69;99722.34;4855792;29;20044;-86
2022/08/20 10:27:43;;;;;;;4.25;2.70;;;;;;;27.15;45.01;99721.34;4852674;29;20033;-87
2022/08/20 10:30:10;;;;;;;3.90;2.60;;;;;;;27.17;44.77;99722.09;4852650;29;20062;-87
2022/08/20 10:32:36;;;;;;;4.13;2.90;;;;;;;27.19;44.79;99709.41;4883726;29;20037;-86
2022/08/20 10:35:02;;;;;;;3.22;2.35;;;;;;;27.21;44.83;99712.81;4855993;29;20124;-88
2022/08/20 10:37:29;;;;;;;4.00;2.60;;;;;;;27.23;44.83;99702.81;4854165;29;20060;-86
2022/08/20 10:39:55;;;;;;;3.15;2.20;;;;;;;27.25;44.54;99698.19;4857893;29;20043;-87
2022/08/20 10:42:21;;;;;;;3.97;2.60;;;;;;;27.26;44.71;99697.19;4859947;29;20528;-88
2022/08/20 10:44:47;;;;;;;3.25;2.28;;;;;;;27.29;44.69;99693.41;4891579;29;20033;-88
2022/08/20 10:47:28;;;;;;;4.05;2.63;;;;;;;27.31;44.49;99703.00;4891170;29;20053;-87
2022/08/20 10:49:56;;;;;;;3.80;2.75;;;;;;;27.31;44.62;99697.66;4860174;29;20037;-87
2022/08/20 10:52:23;;;;;;;3.53;2.53;;;;;;;27.32;45.03;99694.00;4864081;29;20057;-88
2022/08/20 10:54:50;;;;;;;2.83;2.15;;;;;;;27.35;44.89;99687.53;4862554;29;20038;-87
2022/08/20 10:57:21;;;;;;;2.97;2.20;;;;;;;27.38;44.71;99691.78;4861093;29;20037;-88
2022/08/20 10:59:49;;;;;;;3.55;2.42;;;;;;;27.39;44.75;99688.97;4860207;29;20197;-89
2022/08/20 11:02:16;;;;;;;3.92;2.50;;;;;;;27.40;44.77;99681.81;4861141;29;20037;-87
2022/08/20 11:04:42;;;;;;;3.85;2.55;;;;;;;27.42;44.70;99682.50;4877104;29;20044;-87
2022/08/20 11:07:35;;;;;;;3.45;2.38;;;;;;;27.44;44.81;99691.25;4859622;29;20029;-87
2022/08/20 11:10:01;;;;;;;3.47;2.35;;;;;;;27.46;44.79;99681.28;4873901;29;20033;-87
2022/08/20 11:12:27;;;;;;;3.50;2.25;;;;;;;27.49;45.15;99686.34;4859290;29;20063;-89
2022/08/20 11:14:53;;;;;;;3.90;2.40;;;;;;;27.49;44.85;99678.31;4860683;29;20048;-89
2022/08/20 11:17:26;;;;;;;3.75;2.50;;;;;;;27.50;44.63;99674.66;4864678;29;20017;-87
2022/08/20 11:19:53;;;;;;;3.50;2.25;;;;;;;27.53;44.71;99674.41;4865832;29;20125;-88
2022/08/20 11:22:20;;;;;;;3.45;2.38;;;;;;;27.55;44.72;99669.75;4865661;29;20089;-88
2022/08/20 11:24:46;;;;;;;3.78;2.33;;;;;;;27.57;44.50;99675.84;4862064;29;20127;-88
2022/08/20 11:27:43;;;;;;;2.72;2.17;;;;;;;27.58;44.21;99672.22;4855406;29;20040;-88
2022/08/20 11:30:13;;;;;;;3.63;2.20;;;;;;;27.60;44.33;99670.25;4843869;29;20037;-88
2022/08/20 11:32:39;;;;;;;2.63;1.98;;;;;;;27.61;44.57;99677.28;4854368;29;20113;-86
2022/08/20 11:35:13;;;;;;;3.15;2.13;;;;;;;27.63;44.63;99669.13;4854867;29;20123;-87
2022/08/20 11:37:40;;;;;;;3.13;2.22;;;;;;;27.64;44.58;99680.72;4886260;29;20029;-87
2022/08/20 11:40:07;;;;;;;3.53;2.22;;;;;;;27.66;44.54;99668.00;4855220;29;20057;-87
2022/08/20 11:46:58;;;;;;;;;;;;;;;;;;;;;
2022/08/20 11:49:58;;;;;;;3.17;2.20;;;;;;;27.71;44.58;99661.25;4868707;29;20041;-86